createdAt,value
2018-09-13T00:00:40.453Z,14.40
2018-09-13T00:03:08.497Z,14.40
2018-09-13T00:05:36.541Z,14.50
2018-09-13T00:08:04.610Z,14.40
2018-09-13T00:10:33.230Z,14.40
2018-09-13T00:13:01.309Z,14.40
2018-09-13T00:15:29.385Z,14.40
2018-09-13T00:17:57.441Z,14.40
2018-09-13T00:20:25.511Z,14.40
2018-09-13T00:22:54.082Z,14.50
2018-09-13T00:25:22.137Z,14.40
2018-09-13T00:27:50.206Z,14.40
2018-09-13T00:30:18.253Z,14.30
2018-09-13T00:32:46.323Z,14.30
2018-09-13T00:35:14.355Z,14.30
2018-09-13T00:37:42.425Z,14.40
2018-09-13T00:40:10.506Z,14.40
2018-09-13T00:42:38.552Z,14.40
2018-09-13T00:45:06.637Z,14.40
2018-09-13T00:47:34.686Z,14.40
2018-09-13T00:50:02.778Z,14.30
2018-09-13T00:52:30.799Z,14.30
2018-09-13T00:54:58.857Z,14.30
2018-09-13T00:57:26.909Z,14.30
2018-09-13T00:59:54.942Z,14.30
2018-09-13T01:02:23.001Z,14.20
2018-09-13T01:04:51.051Z,14.30
2018-09-13T01:07:19.129Z,14.30
2018-09-13T01:09:47.173Z,14.30
2018-09-13T01:12:15.217Z,14.30
2018-09-13T01:14:43.262Z,14.30
2018-09-13T01:17:11.313Z,14.40
2018-09-13T01:19:39.362Z,14.40
2018-09-13T01:22:07.417Z,14.30
2018-09-13T01:24:35.728Z,14.30
2018-09-13T01:27:03.786Z,14.40
2018-09-13T01:29:31.842Z,14.40
2018-09-13T01:31:59.886Z,14.30
2018-09-13T01:34:27.940Z,14.30
2018-09-13T01:36:55.986Z,14.30
2018-09-13T01:39:24.048Z,14.20
2018-09-13T01:41:52.117Z,14.30
2018-09-13T01:44:20.207Z,14.30
2018-09-13T01:46:48.550Z,14.30
2018-09-13T01:49:16.660Z,14.30
2018-09-13T01:51:44.705Z,14.30
2018-09-13T01:54:12.742Z,14.30
2018-09-13T01:56:40.789Z,14.30
2018-09-13T01:59:09.050Z,14.20
2018-09-13T02:01:37.108Z,14.20
2018-09-13T02:04:05.356Z,14.20
2018-09-13T02:06:33.590Z,14.10
2018-09-13T02:09:01.645Z,14.10
2018-09-13T02:11:29.682Z,14.10
2018-09-13T02:13:57.737Z,14.10
2018-09-13T02:16:25.888Z,14.10
2018-09-13T02:18:53.941Z,14.00
2018-09-13T02:21:22.019Z,14.00
2018-09-13T02:23:50.068Z,13.90
2018-09-13T02:26:18.300Z,13.90
2018-09-13T02:28:46.423Z,13.90
2018-09-13T02:31:14.501Z,13.90
2018-09-13T02:33:42.693Z,13.90
2018-09-13T02:36:10.768Z,13.90
2018-09-13T02:38:38.810Z,13.80
2018-09-13T02:41:07.028Z,13.80
2018-09-13T02:43:35.074Z,13.70
2018-09-13T02:46:03.114Z,13.70
2018-09-13T02:48:31.167Z,13.60
2018-09-13T02:50:59.230Z,13.60
2018-09-13T02:53:27.302Z,13.70
2018-09-13T02:55:55.380Z,13.70
2018-09-13T02:58:23.445Z,13.80
2018-09-13T03:00:51.503Z,13.80
2018-09-13T03:03:19.551Z,13.80
2018-09-13T03:05:47.657Z,13.80
2018-09-13T03:08:15.728Z,13.80
2018-09-13T03:10:43.755Z,13.80
2018-09-13T03:13:11.796Z,13.80
2018-09-13T03:15:39.866Z,13.90
2018-09-13T03:18:07.934Z,13.80
2018-09-13T03:20:35.994Z,13.80
2018-09-13T03:23:04.118Z,13.80
2018-09-13T03:25:32.174Z,13.80
2018-09-13T03:28:00.232Z,13.90
2018-09-13T03:30:28.322Z,13.90
2018-09-13T03:32:56.384Z,13.90
2018-09-13T03:35:24.425Z,13.90
2018-09-13T03:37:52.536Z,13.90
2018-09-13T03:40:20.597Z,13.90
2018-09-13T03:42:48.663Z,13.80
2018-09-13T03:45:16.737Z,13.80
2018-09-13T03:47:45.044Z,13.80
2018-09-13T03:50:13.162Z,13.80
2018-09-13T03:52:41.201Z,13.80
2018-09-13T03:55:09.281Z,13.80
2018-09-13T03:57:37.534Z,13.80
2018-09-13T04:00:05.899Z,13.80
2018-09-13T04:02:33.941Z,13.80
2018-09-13T04:05:01.997Z,13.70
2018-09-13T04:07:30.038Z,13.70
2018-09-13T04:09:58.106Z,13.70
2018-09-13T04:12:26.148Z,13.70
2018-09-13T04:14:54.726Z,13.60
2018-09-13T04:17:22.797Z,13.70
2018-09-13T04:19:50.861Z,13.60
2018-09-13T04:22:18.933Z,13.50
2018-09-13T04:24:47.129Z,13.40
2018-09-13T04:27:15.182Z,13.50
2018-09-13T04:29:43.620Z,13.50
2018-09-13T04:32:11.692Z,13.50
2018-09-13T04:34:40.073Z,13.40
2018-09-13T04:37:08.646Z,13.40
2018-09-13T04:39:36.731Z,13.40
2018-09-13T04:42:04.825Z,13.30
2018-09-13T04:44:32.877Z,13.30
2018-09-13T04:47:00.936Z,13.30
2018-09-13T04:49:29.008Z,13.30
2018-09-13T04:51:57.073Z,13.20
2018-09-13T04:54:25.134Z,13.20
2018-09-13T04:56:53.190Z,13.20
2018-09-13T04:59:21.270Z,13.20
2018-09-13T05:01:49.526Z,13.10
2018-09-13T05:04:17.755Z,13.10
2018-09-13T05:06:45.879Z,13.10
2018-09-13T05:09:14.674Z,13.00
2018-09-13T05:11:42.738Z,13.00
2018-09-13T05:14:10.796Z,13.00
2018-09-13T05:16:38.870Z,13.00
2018-09-13T05:19:07.097Z,13.00
2018-09-13T05:21:35.142Z,13.00
2018-09-13T05:24:03.553Z,13.00
2018-09-13T05:26:31.599Z,13.00
2018-09-13T05:28:59.682Z,12.90
2018-09-13T05:31:27.805Z,12.90
2018-09-13T05:33:55.845Z,12.90
2018-09-13T05:36:23.901Z,12.90
2018-09-13T05:38:51.997Z,12.90
2018-09-13T05:41:20.041Z,13.00
2018-09-13T05:43:48.607Z,13.00
2018-09-13T05:46:16.673Z,13.00
2018-09-13T05:48:44.714Z,13.10
2018-09-13T05:51:12.809Z,13.10
2018-09-13T05:53:40.805Z,13.10
2018-09-13T05:56:08.874Z,13.10
2018-09-13T05:58:36.921Z,13.20
2018-09-13T06:01:04.974Z,13.20
2018-09-13T06:03:33.174Z,13.30
2018-09-13T06:06:01.216Z,13.30
2018-09-13T06:08:29.288Z,13.40
2018-09-13T06:10:57.385Z,13.60
2018-09-13T06:13:25.684Z,13.70
2018-09-13T06:15:53.717Z,13.90
2018-09-13T06:18:21.778Z,14.00
2018-09-13T06:20:49.837Z,14.00
2018-09-13T06:23:17.881Z,14.10
2018-09-13T06:25:45.940Z,14.20
2018-09-13T06:28:14.037Z,14.30
2018-09-13T06:30:42.116Z,14.30
2018-09-13T06:33:10.252Z,14.30
2018-09-13T06:35:38.515Z,14.30
2018-09-13T06:38:06.581Z,14.30
2018-09-13T06:40:34.648Z,14.20
2018-09-13T06:43:02.698Z,14.20
2018-09-13T06:45:30.755Z,14.20
2018-09-13T06:47:58.814Z,14.30
2018-09-13T06:50:26.907Z,14.30
2018-09-13T06:52:55.524Z,14.40
2018-09-13T06:55:23.592Z,14.40
2018-09-13T06:57:51.924Z,14.50
2018-09-13T07:00:19.986Z,14.60
2018-09-13T07:02:48.038Z,14.70
2018-09-13T07:05:16.319Z,14.80
2018-09-13T07:07:44.374Z,14.80
2018-09-13T07:10:12.436Z,14.90
2018-09-13T07:12:40.480Z,15.00
2018-09-13T07:15:08.518Z,15.00
2018-09-13T07:17:36.591Z,15.10
2018-09-13T07:20:05.162Z,15.10
2018-09-13T07:22:33.220Z,15.20
2018-09-13T07:25:01.272Z,15.30
2018-09-13T07:27:29.334Z,15.40
2018-09-13T07:29:57.899Z,15.50
2018-09-13T07:32:26.081Z,15.60
2018-09-13T07:34:55.011Z,15.60
2018-09-13T07:37:23.090Z,15.60
2018-09-13T07:39:51.141Z,15.70
2018-09-13T07:42:19.350Z,15.80
2018-09-13T07:44:47.349Z,15.70
2018-09-13T07:47:15.431Z,15.90
2018-09-13T07:49:43.636Z,16.10
2018-09-13T07:52:11.563Z,16.20
2018-09-13T07:54:39.658Z,16.10
2018-09-13T07:57:07.730Z,16.00
2018-09-13T07:59:35.791Z,16.10
2018-09-13T08:02:03.908Z,16.00
2018-09-13T08:04:32.166Z,16.10
2018-09-13T08:07:00.230Z,16.10
2018-09-13T08:09:28.287Z,16.00
2018-09-13T08:11:56.418Z,15.90
2018-09-13T08:14:24.448Z,15.90
2018-09-13T08:16:52.501Z,15.70
2018-09-13T08:19:20.556Z,15.70
2018-09-13T08:21:48.635Z,15.70
2018-09-13T08:24:16.652Z,15.80
2018-09-13T08:26:44.690Z,15.90
2018-09-13T08:29:12.752Z,15.80
2018-09-13T08:31:40.817Z,15.90
2018-09-13T08:34:09.011Z,16.00
2018-09-13T08:36:37.055Z,16.20
2018-09-13T08:39:08.225Z,16.10
2018-09-13T08:41:36.339Z,16.00
2018-09-13T08:44:04.382Z,16.10
2018-09-13T08:46:32.445Z,16.10
2018-09-13T08:49:00.505Z,16.10
2018-09-13T08:51:28.558Z,16.10
2018-09-13T08:53:56.613Z,16.20
2018-09-13T08:56:24.696Z,16.30
2018-09-13T08:58:52.743Z,16.30
2018-09-13T09:01:20.787Z,16.30
2018-09-13T09:03:48.874Z,16.10
2018-09-13T09:06:16.923Z,16.10
2018-09-13T09:08:44.974Z,16.20
2018-09-13T09:11:13.033Z,16.20
2018-09-13T09:13:41.102Z,16.20
2018-09-13T09:16:09.255Z,16.30
2018-09-13T09:18:37.358Z,16.30
2018-09-13T09:21:05.610Z,16.20
2018-09-13T09:23:33.813Z,16.30
2018-09-13T09:26:01.904Z,16.10
2018-09-13T09:28:30.018Z,16.10
2018-09-13T09:30:58.079Z,16.10
2018-09-13T09:33:26.164Z,16.20
2018-09-13T09:35:54.241Z,16.20
2018-09-13T09:38:22.310Z,16.20
2018-09-13T09:40:50.359Z,16.20
2018-09-13T09:43:18.413Z,16.10
2018-09-13T09:45:46.474Z,16.20
2018-09-13T09:48:15.585Z,16.30
2018-09-13T09:50:43.546Z,16.60
2018-09-13T09:53:11.624Z,16.90
2018-09-13T09:55:39.696Z,17.10
2018-09-13T09:58:07.770Z,17.10
2018-09-13T10:00:41.198Z,17.10
2018-09-13T10:03:09.908Z,17.10
2018-09-13T10:05:37.953Z,17.20
2018-09-13T10:08:06.021Z,17.40
2018-09-13T10:10:34.181Z,17.70
2018-09-13T10:13:02.254Z,17.70
2018-09-13T10:15:35.633Z,17.60
2018-09-13T10:20:12.514Z,17.70
2018-09-13T10:22:46.140Z,17.80
2018-09-13T10:25:19.503Z,18.20
2018-09-13T10:27:52.918Z,18.20
2018-09-13T10:30:26.309Z,18.30
2018-09-13T10:32:59.734Z,18.10
2018-09-13T10:35:33.182Z,18.10
2018-09-13T10:38:06.618Z,17.90
2018-09-13T10:40:40.116Z,17.90
2018-09-13T10:43:13.591Z,17.80
2018-09-13T10:45:47.021Z,17.80
2018-09-13T10:48:21.250Z,17.70
2018-09-13T10:50:54.810Z,17.60
2018-09-13T10:53:28.114Z,17.70
2018-09-13T10:55:56.221Z,17.80
2018-09-13T10:58:24.234Z,17.90
2018-09-13T11:00:52.796Z,18.10
2018-09-13T11:03:20.841Z,18.10
2018-09-13T11:05:48.897Z,18.00
2018-09-13T11:08:17.191Z,17.80
2018-09-13T11:10:45.384Z,17.60
2018-09-13T11:13:19.503Z,17.60
2018-09-13T11:15:47.565Z,17.50
2018-09-13T11:18:15.732Z,17.50
2018-09-13T11:20:44.421Z,17.40
2018-09-13T11:23:12.456Z,17.30
2018-09-13T11:25:40.517Z,17.40
2018-09-13T11:28:08.560Z,17.40
2018-09-13T11:30:36.639Z,17.50
2018-09-13T11:33:04.686Z,17.50
2018-09-13T11:35:32.754Z,17.50
2018-09-13T11:38:00.806Z,17.50
2018-09-13T11:40:29.070Z,17.50
2018-09-13T11:42:56.926Z,17.50
2018-09-13T11:45:24.975Z,17.50
2018-09-13T11:47:53.051Z,17.60
2018-09-13T11:50:21.158Z,17.60
2018-09-13T11:52:49.252Z,17.70
2018-09-13T11:55:17.316Z,18.00
2018-09-13T11:57:45.392Z,18.20
2018-09-13T12:00:13.851Z,18.50
2018-09-13T12:02:41.918Z,18.70
2018-09-13T12:05:10.008Z,18.70
2018-09-13T12:07:38.093Z,18.70
2018-09-13T12:10:06.537Z,18.80
2018-09-13T12:12:35.188Z,18.80
2018-09-13T12:15:03.270Z,18.80
2018-09-13T12:17:31.314Z,18.90
2018-09-13T12:19:59.357Z,18.90
2018-09-13T12:22:28.298Z,18.80
2018-09-13T12:24:56.323Z,18.90
2018-09-13T12:27:24.432Z,18.90
2018-09-13T12:29:52.445Z,19.10
2018-09-13T12:32:20.597Z,19.00
2018-09-13T12:34:48.669Z,19.10
2018-09-13T12:37:16.734Z,19.00
2018-09-13T12:39:44.785Z,19.10
2018-09-13T12:42:12.838Z,19.20
2018-09-13T12:44:40.878Z,19.30
2018-09-13T12:47:08.954Z,19.50
2018-09-13T12:49:37.010Z,19.50
2018-09-13T12:52:05.102Z,19.50
2018-09-13T12:54:33.161Z,19.40
2018-09-13T12:57:01.354Z,19.40
2018-09-13T12:59:29.373Z,19.30
2018-09-13T13:01:57.627Z,19.30
2018-09-13T13:04:25.897Z,19.30
2018-09-13T13:06:53.967Z,18.90
2018-09-13T13:09:22.052Z,18.80
2018-09-13T13:11:50.142Z,18.70
2018-09-13T13:14:18.157Z,18.80
2018-09-13T13:16:46.354Z,18.80
2018-09-13T13:19:14.427Z,18.70
2018-09-13T13:21:42.463Z,18.70
2018-09-13T13:24:10.535Z,18.80
2018-09-13T13:26:38.565Z,18.80
2018-09-13T13:29:06.669Z,18.80
2018-09-13T13:31:34.679Z,18.80
2018-09-13T13:34:02.744Z,18.70
2018-09-13T13:36:30.857Z,18.70
2018-09-13T13:38:58.882Z,18.70
2018-09-13T13:41:26.938Z,18.60
2018-09-13T13:43:55.027Z,18.60
2018-09-13T13:46:23.017Z,18.60
2018-09-13T13:48:51.053Z,18.70
2018-09-13T13:51:19.121Z,18.70
2018-09-13T13:53:47.171Z,18.70
2018-09-13T13:56:15.237Z,18.70
2018-09-13T13:58:43.318Z,18.60
2018-09-13T14:01:11.369Z,18.50
2018-09-13T14:03:39.414Z,18.60
2018-09-13T14:06:07.499Z,18.60
2018-09-13T14:08:35.682Z,18.70
2018-09-13T14:11:03.757Z,19.00
2018-09-13T14:13:31.807Z,19.40
2018-09-13T14:15:59.865Z,19.50
2018-09-13T14:18:27.920Z,19.30
2018-09-13T14:20:56.044Z,19.10
2018-09-13T14:23:24.032Z,18.80
2018-09-13T14:25:52.102Z,18.90
2018-09-13T14:28:20.165Z,19.00
2018-09-13T14:30:48.229Z,18.90
2018-09-13T14:33:16.289Z,18.80
2018-09-13T14:35:44.334Z,18.90
2018-09-13T14:38:12.366Z,18.80
2018-09-13T14:40:40.440Z,18.90
2018-09-13T14:43:08.554Z,19.40
2018-09-13T14:45:36.607Z,20.10
2018-09-13T14:48:05.389Z,20.70
2018-09-13T14:50:33.425Z,20.80
2018-09-13T14:53:01.477Z,20.90
2018-09-13T14:55:29.594Z,20.90
2018-09-13T14:57:57.773Z,21.10
2018-09-13T15:00:25.818Z,21.00
2018-09-13T15:02:53.861Z,20.90
2018-09-13T15:05:21.893Z,20.80
2018-09-13T15:07:49.944Z,20.70
2018-09-13T15:10:17.970Z,20.40
2018-09-13T15:12:46.223Z,20.40
2018-09-13T15:15:14.240Z,20.40
2018-09-13T15:17:42.282Z,20.30
2018-09-13T15:20:10.357Z,19.90
2018-09-13T15:22:38.414Z,19.90
2018-09-13T15:25:06.481Z,19.90
2018-09-13T15:27:35.029Z,19.70
2018-09-13T15:30:03.074Z,19.60
2018-09-13T15:32:31.122Z,19.50
2018-09-13T15:34:59.369Z,19.40
2018-09-13T15:37:27.425Z,19.40
2018-09-13T15:39:55.462Z,19.40
2018-09-13T15:42:23.508Z,19.30
2018-09-13T15:44:51.597Z,19.20
2018-09-13T15:47:19.786Z,19.00
2018-09-13T15:49:47.841Z,19.00
2018-09-13T15:52:15.881Z,19.00
2018-09-13T15:54:43.972Z,19.00
2018-09-13T15:57:12.066Z,19.10
2018-09-13T15:59:40.118Z,19.00
2018-09-13T16:02:08.182Z,19.00
2018-09-13T16:04:36.228Z,19.00
2018-09-13T16:07:04.273Z,19.00
2018-09-13T16:09:32.316Z,18.90
2018-09-13T16:12:00.354Z,18.90
2018-09-13T16:14:28.406Z,18.80
2018-09-13T16:16:56.529Z,18.80
2018-09-13T16:19:24.578Z,18.90
2018-09-13T16:21:52.625Z,19.00
2018-09-13T16:24:20.669Z,19.10
2018-09-13T16:26:48.702Z,19.10
2018-09-13T16:29:16.957Z,19.10
2018-09-13T16:31:45.001Z,19.00
2018-09-13T16:34:13.109Z,19.00
2018-09-13T16:36:46.460Z,18.90
2018-09-13T16:39:25.175Z,18.90
2018-09-13T16:41:58.505Z,18.70
2018-09-13T16:44:31.970Z,18.60
2018-09-13T16:47:06.407Z,18.60
2018-09-13T16:49:36.090Z,18.60
2018-09-13T16:52:04.133Z,18.50
2018-09-13T16:54:32.256Z,18.50
2018-09-13T16:57:00.505Z,18.40
2018-09-13T16:59:29.590Z,18.40
2018-09-13T17:01:57.664Z,18.40
2018-09-13T17:04:25.946Z,18.50
2018-09-13T17:06:54.548Z,18.40
2018-09-13T17:09:22.581Z,18.30
2018-09-13T17:11:50.625Z,18.30
2018-09-13T17:14:18.666Z,18.20
2018-09-13T17:16:46.710Z,18.20
2018-09-13T17:19:14.929Z,18.10
2018-09-13T17:21:42.997Z,17.90
2018-09-13T17:24:11.122Z,17.90
2018-09-13T17:26:39.446Z,17.90
2018-09-13T17:29:08.564Z,17.90
2018-09-13T17:31:36.616Z,17.80
2018-09-13T17:34:04.728Z,17.70
2018-09-13T17:36:32.737Z,17.70
2018-09-13T17:39:00.846Z,17.70
2018-09-13T17:41:28.942Z,17.70
2018-09-13T17:43:57.017Z,17.50
2018-09-13T17:46:25.369Z,17.40
2018-09-13T17:48:53.442Z,17.40
2018-09-13T17:51:21.517Z,17.30
2018-09-13T17:53:49.578Z,17.30
2018-09-13T17:56:17.645Z,17.20
2018-09-13T17:58:45.709Z,17.20
2018-09-13T18:01:14.322Z,17.10
2018-09-13T18:03:42.581Z,17.00
2018-09-13T18:06:10.603Z,17.00
2018-09-13T18:08:38.899Z,17.10
2018-09-13T18:11:07.008Z,17.10
2018-09-13T18:13:35.315Z,17.00
2018-09-13T18:16:03.385Z,16.90
2018-09-13T18:18:31.446Z,16.80
2018-09-13T18:20:59.493Z,16.80
2018-09-13T18:23:27.593Z,16.70
2018-09-13T18:25:55.679Z,16.60
2018-09-13T18:28:23.777Z,16.50
2018-09-13T18:30:51.826Z,16.50
2018-09-13T18:33:20.086Z,16.50
2018-09-13T18:35:48.164Z,16.40
2018-09-13T18:38:16.245Z,16.40
2018-09-13T18:40:45.355Z,16.40
2018-09-13T18:43:13.692Z,16.30
2018-09-13T18:45:41.774Z,16.40
2018-09-13T18:48:09.833Z,16.30
2018-09-13T18:50:37.926Z,16.20
2018-09-13T18:53:06.194Z,16.20
2018-09-13T18:55:34.267Z,16.20
2018-09-13T18:58:02.363Z,16.10
2018-09-13T19:00:31.562Z,16.00
2018-09-13T19:02:59.631Z,16.00
2018-09-13T19:05:28.128Z,15.90
2018-09-13T19:07:56.181Z,15.90
2018-09-13T19:10:24.281Z,15.90
2018-09-13T19:12:53.886Z,15.90
2018-09-13T19:15:22.009Z,15.90
2018-09-13T19:17:50.144Z,15.80
2018-09-13T19:20:18.249Z,15.80
2018-09-13T19:22:46.358Z,15.70
2018-09-13T19:25:14.445Z,15.60
2018-09-13T19:27:42.549Z,15.50
2018-09-13T19:30:10.637Z,15.50
2018-09-13T19:32:38.723Z,15.40
2018-09-13T19:35:07.065Z,15.50
2018-09-13T19:37:35.162Z,15.60
2018-09-13T19:40:03.302Z,15.50
2018-09-13T19:42:31.388Z,15.40
2018-09-13T19:44:59.466Z,15.40
2018-09-13T19:47:27.541Z,15.50
2018-09-13T19:49:55.703Z,15.40
2018-09-13T19:52:23.774Z,15.30
2018-09-13T19:54:51.849Z,15.20
2018-09-13T19:57:19.977Z,15.20
2018-09-13T19:59:48.072Z,15.10
2018-09-13T20:02:16.147Z,15.10
2018-09-13T20:04:44.299Z,14.90
2018-09-13T20:07:12.359Z,14.90
2018-09-13T20:09:40.456Z,14.80
2018-09-13T20:12:08.618Z,14.90
2018-09-13T20:14:36.612Z,14.90
2018-09-13T20:17:05.150Z,14.90
2018-09-13T20:19:34.274Z,14.90
2018-09-13T20:22:02.323Z,14.90
2018-09-13T20:24:30.422Z,14.90
2018-09-13T20:26:58.497Z,14.80
2018-09-13T20:29:26.533Z,14.90
2018-09-13T20:31:55.374Z,15.00
2018-09-13T20:34:23.421Z,15.10
2018-09-13T20:36:51.658Z,15.10
2018-09-13T20:39:19.713Z,15.20
2018-09-13T20:41:47.762Z,15.10
2018-09-13T20:44:15.791Z,15.10
2018-09-13T20:46:43.872Z,14.80
2018-09-13T20:49:11.919Z,14.70
2018-09-13T20:51:39.954Z,14.50
2018-09-13T20:54:08.064Z,14.50
2018-09-13T20:56:36.121Z,14.40
2018-09-13T20:59:04.178Z,14.30
2018-09-13T21:01:32.225Z,14.30
2018-09-13T21:04:00.261Z,14.30
2018-09-13T21:06:28.371Z,14.20
2018-09-13T21:08:56.414Z,14.10
2018-09-13T21:11:24.458Z,14.10
2018-09-13T21:13:52.502Z,14.10
2018-09-13T21:16:20.596Z,14.10
2018-09-13T21:18:48.656Z,14.00
2018-09-13T21:21:16.705Z,14.00
2018-09-13T21:23:44.753Z,14.00
2018-09-13T21:26:12.825Z,14.00
2018-09-13T21:28:40.978Z,14.00
2018-09-13T21:31:09.088Z,13.90
2018-09-13T21:33:37.154Z,13.90
2018-09-13T21:36:05.398Z,13.90
2018-09-13T21:38:34.725Z,13.80
2018-09-13T21:41:02.782Z,13.80
2018-09-13T21:43:31.043Z,13.80
2018-09-13T21:45:59.095Z,13.70
2018-09-13T21:48:27.132Z,13.70
2018-09-13T21:50:55.702Z,13.70
2018-09-13T21:53:23.769Z,13.70
2018-09-13T21:55:51.826Z,13.70
2018-09-13T21:58:19.911Z,13.70
2018-09-13T22:00:47.970Z,13.60
2018-09-13T22:03:16.042Z,13.60
2018-09-13T22:05:44.094Z,13.60
2018-09-13T22:08:12.366Z,13.60
2018-09-13T22:10:40.415Z,13.60
2018-09-13T22:13:08.514Z,13.60
2018-09-13T22:15:36.564Z,13.60
2018-09-13T22:18:04.633Z,13.60
2018-09-13T22:20:32.699Z,13.50
2018-09-13T22:23:00.746Z,13.50
2018-09-13T22:25:28.785Z,13.50
2018-09-13T22:27:56.865Z,13.50
2018-09-13T22:30:24.956Z,13.40
2018-09-13T22:32:53.050Z,13.40
2018-09-13T22:35:21.115Z,13.40
2018-09-13T22:37:49.166Z,13.40
2018-09-13T22:40:17.205Z,13.40
2018-09-13T22:42:45.254Z,13.40
2018-09-13T22:45:13.351Z,13.40
2018-09-13T22:47:41.415Z,13.30
2018-09-13T22:50:09.457Z,13.30
2018-09-13T22:52:37.613Z,13.30
2018-09-13T22:55:05.691Z,13.30
2018-09-13T22:57:34.062Z,13.30
2018-09-13T23:00:02.207Z,13.30
2018-09-13T23:02:34.510Z,13.20
2018-09-13T23:05:02.547Z,13.20
2018-09-13T23:07:30.610Z,13.20
2018-09-13T23:09:58.649Z,13.20
2018-09-13T23:12:26.697Z,13.20
2018-09-13T23:14:54.759Z,13.20
2018-09-13T23:17:22.833Z,13.10
2018-09-13T23:19:50.851Z,13.10
2018-09-13T23:22:18.901Z,13.10
2018-09-13T23:24:46.953Z,13.10
2018-09-13T23:27:15.026Z,13.10
2018-09-13T23:29:43.081Z,13.10
2018-09-13T23:32:11.121Z,13.10
2018-09-13T23:34:39.170Z,13.10
2018-09-13T23:37:07.206Z,13.00
2018-09-13T23:39:35.550Z,13.00
2018-09-13T23:42:03.303Z,13.00
2018-09-13T23:44:31.373Z,13.00
2018-09-13T23:46:59.445Z,13.00
2018-09-13T23:49:27.508Z,13.00
2018-09-13T23:51:55.558Z,13.00
2018-09-13T23:54:23.688Z,13.00
2018-09-13T23:56:51.830Z,13.00
2018-09-13T23:59:19.889Z,12.90
